Huvudsida
METAR-TAF:

METAR-TAF

Flygplatser :

Staunings flygplats

Ringkøbing-Skjern, Danmark

latitud: 56-00N, longitud: 008-21E, höjd: 5 m

Aktuellt väderrapport

Denna rapport gjordes för 3 timmar och 26 minuter sedan, klockan 14:50 UTC
Vind 10 kt från ost/sydost
Temperatur 0°C
Fuktighet 86%
Tryck 1012 hPa
Sikt 10 km eller mer
Brutna moln på en höjd av 3000 ft

METAR: EKVJ 161450Z 12010KT 9999 BKN030 00/M02 Q1012

Tid: 19:16 (18:16 UTC)


TAF: saknas

Aktuella väderrapporter och prognoser från 4000 flygplatser (METAR- och TAF-rapporter).

De tillgängliga stationerna syns som gula och röda prickar på kartan.

För musen över prickarna för att se namnen på stationerna.

Klicka sedan för att få väderrapporter och prognoser.

För att ändra kartan: Klicka på de gröna knapparna med ett svart kors på för att zooma in; den gröna knappen med ett streck på för att zooma ut; eller på de gröna pilarna för angränsande kartor.


METAR-TAF: